Time;durP1;ratioP1;P1;durP2;ratioP2;P2;SDS_P1;SDS_P2;PMS_P1;PMS_P2;Temp;Humidity;BMP_temperature;BMP_pressure;BME280_temperature;BME280_humidity;BME280_pressure;Samples;Min_cycle;Max_cycle;Signal;HPM_P1;HPM_P2
2022/08/04 00:00:16;;;;;;;;;;;;;;;23.59;65.50;101235.41;5075667;28;19956;-37
2022/08/04 00:02:41;;;;;;;;;;;;;;;23.56;65.54;101230.50;5076502;28;19912;-37
2022/08/04 00:05:11;;;;;;;;;;;;;;;23.54;65.66;101221.72;5075820;28;19939;-37
2022/08/04 00:07:42;;;;;;;;;;;;;;;23.51;65.82;101227.84;5075753;28;19912;-37
2022/08/04 00:10:08;;;;;;;;;;;;;;;23.47;66.05;101220.50;5076576;28;19912;-37
2022/08/04 00:12:35;;;;;;;;;;;;;;;23.46;65.90;101218.88;5075664;28;19912;-37
2022/08/04 00:15:03;;;;;;;;;;;;;;;23.45;65.97;101218.06;5075585;28;19912;-37
2022/08/04 00:17:30;;;;;;;;;;;;;;;23.42;66.02;101221.41;5075539;28;20440;-37
2022/08/04 00:19:58;;;;;;;;;;;;;;;23.40;66.11;101229.22;5075311;28;20364;-37
2022/08/04 00:22:26;;;;;;;;;;;;;;;23.38;66.01;101224.00;5075147;28;19912;-37
2022/08/04 00:24:52;;;;;;;;;;;;;;;23.35;66.47;101221.03;5074912;28;19912;-37
2022/08/04 00:27:17;;;;;;;;;;;;;;;23.31;66.38;101220.81;5075640;28;20257;-37
2022/08/04 00:29:43;;;;;;;;;;;;;;;23.30;66.29;101216.44;5075530;28;19912;-37
2022/08/04 00:32:08;;;;;;;;;;;;;;;23.28;66.30;101217.88;5075309;28;19920;-37
2022/08/04 00:34:33;;;;;;;;;;;;;;;23.28;66.76;101217.88;5075537;28;19995;-37
2022/08/04 00:36:59;;;;;;;;;;;;;;;23.26;66.31;101211.84;5075175;28;20276;-35
2022/08/04 00:39:24;;;;;;;;;;;;;;;23.26;66.44;101207.13;5074904;28;19916;-36
2022/08/04 00:42:02;;;;;;;;;;;;;;;23.26;66.64;101200.81;5074963;28;20326;-36
2022/08/04 00:44:40;;;;;;;;;;;;;;;23.22;66.52;101200.59;5074709;28;19958;-36
2022/08/04 00:47:11;;;;;;;;;;;;;;;23.18;66.38;101205.13;5075158;28;20296;-36
2022/08/04 00:50:02;;;;;;;;;;;;;;;23.17;66.45;101200.69;5075167;28;20279;-36
2022/08/04 00:52:46;;;;;;;;;;;;;;;23.17;66.36;101197.13;5075060;28;19912;-36
2022/08/04 00:55:29;;;;;;;;;;;;;;;23.15;66.36;101202.16;5075520;28;20322;-36
2022/08/04 00:58:05;;;;;;;;;;;;;;;23.12;66.48;101203.56;5074637;28;19912;-36
2022/08/04 01:00:48;;;;;;;;;;;;;;;23.07;66.66;101198.97;5075047;28;20377;-36
2022/08/04 01:03:29;;;;;;;;;;;;;;;23.04;66.61;101196.03;5074558;28;20006;-36
2022/08/04 01:06:20;;;;;;;;;;;;;;;23.02;66.67;101192.75;5075103;28;19920;-36
2022/08/04 01:08:59;;;;;;;;;;;;;;;22.98;66.81;101191.72;5073863;28;20335;-36
2022/08/04 01:11:39;;;;;;;;;;;;;;;22.95;66.95;101187.63;5074250;28;19962;-36
2022/08/04 01:14:15;;;;;;;;;;;;;;;22.93;66.84;101189.06;5074421;28;20006;-36
2022/08/04 01:16:47;;;;;;;;;;;;;;;22.90;66.83;101184.16;5074878;28;19958;-36
2022/08/04 01:19:31;;;;;;;;;;;;;;;22.86;67.67;101179.22;5074482;28;19949;-36
2022/08/04 01:22:06;;;;;;;;;;;;;;;22.82;66.98;101178.19;5074277;28;19928;-36
2022/08/04 01:24:50;;;;;;;;;;;;;;;22.82;66.88;101178.19;5074168;28;20014;-36
2022/08/04 01:27:33;;;;;;;;;;;;;;;22.82;67.16;101164.41;5074413;28;20276;-36
2022/08/04 01:29:59;;;;;;;;;;;;;;;22.78;67.23;101168.09;5074069;28;19916;-36
2022/08/04 01:32:24;;;;;;;;;;;;;;;22.75;66.97;101169.53;5073760;28;19913;-36
2022/08/04 01:35:09;;;;;;;;;;;;;;;22.74;67.29;101167.03;5074205;28;19917;-36
2022/08/04 01:37:44;;;;;;;;;;;;;;;22.72;67.52;101166.56;5073829;28;19978;-36
2022/08/04 01:40:12;;;;;;;;;;;;;;;22.71;67.03;101160.22;5073982;28;20276;-36
2022/08/04 01:42:38;;;;;;;;;;;;;;;22.69;67.31;101159.69;5073746;28;19962;-36
2022/08/04 01:45:04;;;;;;;;;;;;;;;22.67;67.76;101159.19;5074279;28;20352;-36
2022/08/04 01:47:32;;;;;;;;;;;;;;;22.62;67.70;101156.53;5073654;28;19916;-36
2022/08/04 01:50:03;;;;;;;;;;;;;;;22.60;67.89;101154.09;5074464;28;19951;-37
2022/08/04 01:52:30;;;;;;;;;;;;;;;22.59;68.21;101148.88;5073737;28;19959;-37
2022/08/04 01:54:56;;;;;;;;;;;;;;;22.57;67.81;101148.38;5073302;28;19970;-37
2022/08/04 01:57:22;;;;;;;;;;;;;;;22.54;68.33;101147.00;5073501;28;19916;-37
2022/08/04 01:59:50;;;;;;;;;;;;;;;22.51;68.92;101147.66;5073738;28;19916;-37
2022/08/04 02:02:15;;;;;;;;;;;;;;;22.48;69.20;101148.25;5073430;28;19955;-37
2022/08/04 02:04:40;;;;;;;;;;;;;;;22.46;68.57;101141.41;5073461;28;20342;-36
2022/08/04 02:07:24;;;;;;;;;;;;;;;22.43;68.90;101147.53;5073696;28;19912;-36
2022/08/04 02:10:01;;;;;;;;;;;;;;;22.42;68.42;101146.69;5073735;28;19916;-37
2022/08/04 02:12:26;;;;;;;;;;;;;;;22.41;68.27;101145.06;5073072;28;19952;-37
2022/08/04 02:14:56;;;;;;;;;;;;;;;22.41;68.48;101141.50;5073344;28;19948;-37
2022/08/04 02:17:27;;;;;;;;;;;;;;;22.39;68.38;101132.72;5073549;28;20364;-37
2022/08/04 02:20:05;;;;;;;;;;;;;;;22.36;68.58;101131.41;5073808;28;20297;-37
2022/08/04 02:22:31;;;;;;;;;;;;;;;22.33;69.22;101132.81;5073296;28;19916;-37
2022/08/04 02:25:02;;;;;;;;;;;;;;;22.32;68.88;101122.91;5072461;28;19912;-37
2022/08/04 02:27:34;;;;;;;;;;;;;;;22.30;68.77;101124.31;5073513;28;19916;-37
2022/08/04 02:30:02;;;;;;;;;;;;;;;22.30;68.81;101127.06;5073313;28;19913;-36
2022/08/04 02:32:38;;;;;;;;;;;;;;;22.30;68.64;101130.69;5073155;28;20010;-37
2022/08/04 02:35:07;;;;;;;;;;;;;;;22.30;68.47;101129.81;5074013;28;20031;-37
2022/08/04 02:37:32;;;;;;;;;;;;;;;22.29;68.25;101131.78;5073178;28;20003;-37
2022/08/04 02:39:59;;;;;;;;;;;;;;;22.27;68.75;101127.69;5073399;28;20372;-37
2022/08/04 02:42:25;;;;;;;;;;;;;;;22.22;68.20;101125.84;5073135;28;19912;-37
2022/08/04 02:44:51;;;;;;;;;;;;;;;22.20;68.57;101124.50;5072805;28;19912;-37
2022/08/04 02:47:20;;;;;;;;;;;;;;;22.16;68.23;101121.56;5073314;28;19913;-37
2022/08/04 02:49:46;;;;;;;;;;;;;;;22.14;68.33;101120.22;5073656;28;20468;-37
2022/08/04 02:52:12;;;;;;;;;;;;;;;22.12;68.34;101120.53;5073047;28;19966;-37
2022/08/04 02:54:38;;;;;;;;;;;;;;;22.08;68.39;101114.75;5073017;28;20364;-37
2022/08/04 02:57:07;;;;;;;;;;;;;;;22.07;68.17;101123.34;5073790;28;20210;-37
2022/08/04 02:59:41;;;;;;;;;;;;;;;22.05;68.22;101122.78;5072844;28;19916;-37
2022/08/04 03:02:06;;;;;;;;;;;;;;;22.03;68.29;101123.09;5073332;28;19913;-37
2022/08/04 03:04:43;;;;;;;;;;;;;;;22.01;68.28;101119.00;5073467;28;20020;-37
2022/08/04 03:07:27;;;;;;;;;;;;;;;21.98;68.36;101125.94;5072976;28;19912;-37
2022/08/04 03:10:15;;;;;;;;;;;;;;;21.95;68.46;101122.97;5073757;28;20058;-37
2022/08/04 03:12:56;;;;;;;;;;;;;;;21.94;69.40;101121.34;5050450;28;19912;-37
2022/08/04 03:15:33;;;;;;;;;;;;;;;21.91;69.12;101113.69;5050649;28;19920;-37
2022/08/04 03:17:58;;;;;;;;;;;;;;;21.88;68.84;101119.78;5050529;28;20407;-37
2022/08/04 03:20:43;;;;;;;;;;;;;;;21.83;68.81;101128.94;5051006;28;19912;-37
2022/08/04 03:23:25;;;;;;;;;;;;;;;21.81;68.91;101145.78;5050635;28;20277;-37
2022/08/04 03:26:08;;;;;;;;;;;;;;;21.81;69.12;101143.03;5050764;28;19913;-37
2022/08/04 03:28:34;;;;;;;;;;;;;;;21.79;70.30;101131.47;5050791;28;19913;-36
2022/08/04 03:31:17;;;;;;;;;;;;;;;21.77;69.21;101127.41;5051014;28;19916;-36
2022/08/04 03:34:03;;;;;;;;;;;;;;;21.78;69.25;101127.09;5050479;28;19966;-36
2022/08/04 03:36:39;;;;;;;;;;;;;;;21.78;69.42;101127.09;5053284;28;20312;-36
2022/08/04 03:39:42;;;;;;;;;;;;;;;21.73;69.21;101129.94;5054184;28;19912;-37
2022/08/04 03:42:22;;;;;;;;;;;;;;;21.68;69.26;101132.75;4955751;29;20457;-37
2022/08/04 03:44:47;;;;;;;;;;;;;;;21.68;69.41;101126.44;4956215;29;20351;-37
2022/08/04 03:47:22;;;;;;;;;;;;;;;21.68;69.14;101131.94;4955747;29;19961;-36
2022/08/04 03:50:05;;;;;;;;;;;;;;;21.66;69.23;101131.41;4977250;28;19964;-36
2022/08/04 03:53:27;;;;;;;;;;;;;;;21.65;69.33;101135.28;4994856;28;19921;-38
2022/08/04 03:55:46;;;;;;;;;;;;;;;21.60;69.14;101130.69;4987827;28;20005;-37
2022/08/04 03:58:24;;;;;;;;;;;;;;;21.62;69.46;101146.88;4994194;28;20337;-37
2022/08/04 04:00:58;;;;;;;;;;;;;;;21.64;69.74;101162.00;4994311;28;19930;-36
2022/08/04 04:03:42;;;;;;;;;;;;;;;21.65;69.41;101157.31;4994078;28;20029;-37
2022/08/04 04:06:29;;;;;;;;;;;;;;;21.67;69.62;101153.16;4994196;28;19965;-36
2022/08/04 04:09:12;;;;;;;;;;;;;;;21.68;69.67;101148.47;4994374;28;19976;-37
2022/08/04 04:11:38;;;;;;;;;;;;;;;21.68;69.44;101148.47;4994536;28;19914;-36
2022/08/04 04:14:25;;;;;;;;;;;;;;;21.69;69.59;101145.41;5074714;28;19947;-36
2022/08/04 04:17:09;;;;;;;;;;;;;;;21.69;69.85;101142.66;5075613;28;19980;-36
2022/08/04 04:19:37;;;;;;;;;;;;;;;21.67;69.41;101157.81;5075291;28;19919;-36
2022/08/04 04:22:14;;;;;;;;;;;;;;;21.66;69.57;101157.00;5075586;28;19919;-36
2022/08/04 04:24:45;;;;;;;;;;;;;;;21.62;69.81;101161.47;5075667;28;19920;-36
2022/08/04 04:27:17;;;;;;;;;;;;;;;21.56;70.50;101159.91;5076324;28;19993;-38
2022/08/04 04:30:00;;;;;;;;;;;;;;;21.52;70.92;101150.59;5075302;28;19951;-36
2022/08/04 04:32:37;;;;;;;;;;;;;;;21.55;71.35;101156.34;5076059;28;19912;-36
2022/08/04 04:35:09;;;;;;;;;;;;;;;21.59;70.75;101157.38;5075584;28;19912;-36
2022/08/04 04:37:41;;;;;;;;;;;;;;;21.60;70.44;101163.69;5075220;28;19912;-36
2022/08/04 04:40:06;;;;;;;;;;;;;;;21.62;70.29;101161.47;5075656;28;20311;-36
2022/08/04 04:42:47;;;;;;;;;;;;;;;21.60;70.27;101166.44;5074835;28;19920;-36
2022/08/04 04:45:28;;;;;;;;;;;;;;;21.58;70.66;101164.00;5075392;28;20015;-36
2022/08/04 04:48:13;;;;;;;;;;;;;;;21.57;70.53;101154.13;5073885;28;20229;-36
2022/08/04 04:50:57;;;;;;;;;;;;;;;21.57;70.44;101150.56;5074878;28;19916;-37
2022/08/04 04:53:34;;;;;;;;;;;;;;;21.59;70.51;101151.88;5075151;28;20336;-36
2022/08/04 04:56:14;;;;;;;;;;;;;;;21.65;70.75;101160.88;5075534;28;19931;-36
2022/08/04 04:58:40;;;;;;;;;;;;;;;21.70;70.76;101159.97;5074509;28;19916;-37
2022/08/04 05:01:17;;;;;;;;;;;;;;;21.72;72.20;101158.56;5074529;28;19916;-37
2022/08/04 05:03:52;;;;;;;;;;;;;;;21.76;71.19;101161.53;5074797;28;19912;-37
2022/08/04 05:06:41;;;;;;;;;;;;;;;21.81;71.98;101167.81;5075638;28;19918;-37
2022/08/04 05:09:24;;;;;;;;;;;;;;;21.86;71.45;101169.63;5052322;28;19913;-37
2022/08/04 05:11:52;;;;;;;;;;;;;;;21.95;71.14;101169.78;5052671;28;19978;-36
2022/08/04 05:14:28;;;;;;;;;;;;;;;22.01;71.52;101163.91;5052161;28;19920;-37
2022/08/04 05:17:00;;;;;;;;;;;;;;;22.06;71.70;101160.25;5052898;28;19922;-36
2022/08/04 05:19:31;;;;;;;;;;;;;;;22.06;71.20;101154.75;5052019;28;19979;-37
2022/08/04 05:22:02;;;;;;;;;;;;;;;22.08;71.08;101152.50;5051995;28;19942;-37
2022/08/04 05:24:30;;;;;;;;;;;;;;;22.10;71.14;101167.59;5052024;28;20456;-36
2022/08/04 05:26:59;;;;;;;;;;;;;;;22.13;71.16;101168.97;5052100;28;20376;-35
2022/08/04 05:29:24;;;;;;;;;;;;;;;22.17;71.21;101161.75;5051750;28;19919;-36
2022/08/04 05:31:50;;;;;;;;;;;;;;;22.19;71.60;101170.50;5052245;28;19996;-36
2022/08/04 05:34:35;;;;;;;;;;;;;;;22.22;71.30;101169.09;5051870;28;19912;-36
2022/08/04 05:37:05;;;;;;;;;;;;;;;22.27;71.79;101160.75;5034869;28;19920;-36
2022/08/04 05:39:32;;;;;;;;;;;;;;;22.30;71.69;101166.50;5051465;28;20003;-36
2022/08/04 05:41:58;;;;;;;;;;;;;;;22.35;72.26;101163.63;5051620;28;19912;-36
2022/08/04 05:44:24;;;;;;;;;;;;;;;22.38;73.77;101167.72;5051496;28;20331;-36
2022/08/04 05:46:51;;;;;;;;;;;;;;;22.35;76.32;101158.13;5070001;28;20284;-36
2022/08/04 05:49:18;;;;;;;;;;;;;;;22.36;73.32;101157.00;5073677;28;20039;-36
2022/08/04 05:51:45;;;;;;;;;;;;;;;22.41;75.40;101147.03;5073693;28;19919;-36
2022/08/04 05:54:11;;;;;;;;;;;;;;;22.39;73.73;101140.97;5073627;28;19916;-36
2022/08/04 05:56:37;;;;;;;;;;;;;;;22.43;73.68;101142.00;5074479;28;19912;-36
2022/08/04 05:59:04;;;;;;;;;;;;;;;22.45;75.08;101148.03;5073668;28;19912;-36
2022/08/04 06:01:30;;;;;;;;;;;;;;;22.42;75.74;101143.13;5073665;28;20396;-36
2022/08/04 06:03:57;;;;;;;;;;;;;;;22.42;76.46;101145.88;5073985;28;19919;-36
2022/08/04 06:06:23;;;;;;;;;;;;;;;22.38;77.22;101144.84;5072551;28;20404;-36
2022/08/04 06:08:48;;;;;;;;;;;;;;;22.25;78.19;101147.28;5073562;28;19912;-37
2022/08/04 06:11:14;;;;;;;;;;;;;;;22.26;77.17;101157.19;5073988;28;20363;-36
2022/08/04 06:13:42;;;;;;;;;;;;;;;22.30;77.71;101149.13;5073245;28;20347;-37
2022/08/04 06:16:07;;;;;;;;;;;;;;;22.35;77.03;101149.88;5073463;28;19912;-37
2022/08/04 06:18:35;;;;;;;;;;;;;;;22.44;76.00;101146.41;5073751;28;20331;-37
2022/08/04 06:21:02;;;;;;;;;;;;;;;22.54;75.19;101148.97;5073390;28;20368;-37
2022/08/04 06:23:28;;;;;;;;;;;;;;;22.67;74.54;101147.34;5073562;28;19916;-37
2022/08/04 06:25:56;;;;;;;;;;;;;;;22.76;74.16;101153.78;5073396;28;20082;-37
2022/08/04 06:28:21;;;;;;;;;;;;;;;22.87;74.55;101155.22;5073050;28;19912;-37
2022/08/04 06:30:49;;;;;;;;;;;;;;;22.97;73.91;101141.25;5072978;28;19913;-37
2022/08/04 06:33:25;;;;;;;;;;;;;;;23.08;73.56;101150.13;5073692;28;19912;-37
2022/08/04 06:35:54;;;;;;;;;;;;;;;23.19;73.68;101153.53;5073441;28;19920;-37
2022/08/04 06:38:23;;;;;;;;;;;;;;;23.30;73.31;101161.25;5073897;28;19919;-37
2022/08/04 06:40:48;;;;;;;;;;;;;;;23.38;73.77;101166.06;5073664;28;19913;-37
2022/08/04 06:43:13;;;;;;;;;;;;;;;23.48;73.12;101167.78;5073344;28;19913;-37
2022/08/04 06:45:40;;;;;;;;;;;;;;;23.63;73.46;101169.38;5073649;28;19922;-37
2022/08/04 06:48:06;;;;;;;;;;;;;;;23.77;73.43;101172.94;5073170;28;19912;-37
2022/08/04 06:50:33;;;;;;;;;;;;;;;23.88;72.41;101168.00;5073208;28;20304;-37
2022/08/04 06:52:58;;;;;;;;;;;;;;;23.97;72.01;101179.09;5073598;28;20311;-36
2022/08/04 06:55:24;;;;;;;;;;;;;;;24.01;72.00;101177.31;5073575;28;19912;-37
2022/08/04 06:57:49;;;;;;;;;;;;;;;24.04;71.47;101179.47;5073763;28;19977;-38
2022/08/04 07:00:15;;;;;;;;;;;;;;;24.05;71.50;101187.44;5073984;28;19940;-37
2022/08/04 07:02:44;;;;;;;;;;;;;;;24.09;71.16;101182.13;5072777;28;19912;-37
2022/08/04 07:05:10;;;;;;;;;;;;;;;24.19;71.38;101178.28;5072761;28;19917;-35
2022/08/04 07:07:37;;;;;;;;;;;;;;;24.29;71.37;101172.50;5072945;28;19924;-36
2022/08/04 07:10:03;;;;;;;;;;;;;;;24.39;71.28;101175.03;5073622;28;20288;-36
2022/08/04 07:12:28;;;;;;;;;;;;;;;24.48;71.05;101173.13;5077016;28;19912;-43
2022/08/04 07:14:54;;;;;;;;;;;;;;;24.58;70.64;101174.81;5076946;28;20074;-36
2022/08/04 07:17:19;;;;;;;;;;;;;;;24.60;70.38;101178.09;5076663;28;19982;-35
2022/08/04 07:19:45;;;;;;;;;;;;;;;24.56;70.37;101177.91;5077195;28;19912;-36
2022/08/04 07:22:11;;;;;;;;;;;;;;;24.52;70.43;101174.13;5076929;28;20003;-36
2022/08/04 07:24:36;;;;;;;;;;;;;;;24.57;70.84;101178.72;5076519;28;19970;-36
2022/08/04 07:27:02;;;;;;;;;;;;;;;24.60;70.61;101181.66;5076476;28;19957;-36
2022/08/04 07:29:27;;;;;;;;;;;;;;;24.59;70.48;101181.97;5076404;28;19966;-36
2022/08/04 07:31:57;;;;;;;;;;;;;;;24.57;70.63;101190.59;5076469;28;19912;-36
2022/08/04 07:34:22;;;;;;;;;;;;;;;24.51;69.98;101182.75;5076938;28;19912;-36
2022/08/04 07:36:49;;;;;;;;;;;;;;;24.54;70.15;101187.63;5076819;28;19912;-36
2022/08/04 07:39:14;;;;;;;;;;;;;;;24.59;70.41;101184.72;5074921;28;20364;-36
2022/08/04 07:41:41;;;;;;;;;;;;;;;24.63;70.49;101180.19;5076109;28;19920;-36
2022/08/04 07:44:07;;;;;;;;;;;;;;;24.75;70.28;101183.19;5076254;28;19912;-45
2022/08/04 07:46:33;;;;;;;;;;;;;;;24.88;70.03;101187.78;5076240;28;19935;-36
2022/08/04 07:48:59;;;;;;;;;;;;;;;25.00;69.69;101183.63;5076754;28;20337;-36
2022/08/04 07:51:24;;;;;;;;;;;;;;;25.13;69.62;101189.09;5075869;28;19924;-36
2022/08/04 07:53:50;;;;;;;;;;;;;;;25.25;68.98;101196.75;5076610;28;19912;-36
2022/08/04 07:56:15;;;;;;;;;;;;;;;25.33;68.98;101190.44;5076538;28;19931;-36
2022/08/04 07:58:41;;;;;;;;;;;;;;;25.36;68.88;101192.53;5075982;28;20288;-36
2022/08/04 08:01:06;;;;;;;;;;;;;;;25.40;68.62;101187.19;5076254;28;19916;-36
2022/08/04 08:03:32;;;;;;;;;;;;;;;25.50;68.15;101192.41;5076075;28;19912;-36
2022/08/04 08:05:58;;;;;;;;;;;;;;;25.57;68.15;101187.22;5076416;28;19916;-36
2022/08/04 08:08:24;;;;;;;;;;;;;;;25.64;66.92;101195.03;5075526;28;19923;-36
2022/08/04 08:10:49;;;;;;;;;;;;;;;25.67;66.87;101197.97;5076006;28;20007;-36
2022/08/04 08:13:14;;;;;;;;;;;;;;;25.74;66.81;101197.47;5075548;28;19913;-36
2022/08/04 08:15:40;;;;;;;;;;;;;;;25.84;66.14;101202.72;5076601;28;20051;-36
2022/08/04 08:18:05;;;;;;;;;;;;;;;25.89;64.21;101205.34;5075328;28;19912;-36
2022/08/04 08:20:31;;;;;;;;;;;;;;;25.96;65.01;101213.16;5075358;28;20015;-36
2022/08/04 08:22:57;;;;;;;;;;;;;;;26.00;65.42;101202.25;5074646;28;19912;-36
2022/08/04 08:25:22;;;;;;;;;;;;;;;26.12;65.16;101208.75;5075895;28;20409;-36
2022/08/04 08:27:47;;;;;;;;;;;;;;;26.23;64.43;101208.44;5075556;28;19912;-36
2022/08/04 08:30:13;;;;;;;;;;;;;;;26.34;64.15;101209.72;5075778;28;20249;-36
2022/08/04 08:32:39;;;;;;;;;;;;;;;26.41;63.98;101212.81;5075463;28;20343;-36
2022/08/04 08:35:05;;;;;;;;;;;;;;;26.43;62.12;101214.13;5075351;28;19919;-36
2022/08/04 08:37:42;;;;;;;;;;;;;;;26.50;63.45;101210.03;5075262;28;20255;-35
2022/08/04 08:40:07;;;;;;;;;;;;;;;26.65;62.34;101215.06;5075399;28;20356;-35
2022/08/04 08:42:50;;;;;;;;;;;;;;;26.74;60.33;101210.28;5075176;28;19920;-36
2022/08/04 08:45:16;;;;;;;;;;;;;;;26.85;59.97;101219.91;5074933;28;20263;-35
2022/08/04 08:48:00;;;;;;;;;;;;;;;26.91;60.22;101212.19;5074971;28;19920;-36
2022/08/04 08:50:31;;;;;;;;;;;;;;;27.00;57.84;101226.03;5075742;28;19912;-36
2022/08/04 08:53:13;;;;;;;;;;;;;;;27.11;60.56;101222.56;5074789;28;20348;-36
2022/08/04 08:55:38;;;;;;;;;;;;;;;27.25;58.74;101227.09;5074609;28;19912;-36
2022/08/04 08:58:19;;;;;;;;;;;;;;;27.37;58.88;101222.44;5075288;28;20038;-36
2022/08/04 09:00:50;;;;;;;;;;;;;;;27.49;59.07;101227.28;5075602;28;19916;-36
2022/08/04 09:03:16;;;;;;;;;;;;;;;27.63;56.28;101233.41;5074711;28;20313;-36
2022/08/04 09:05:53;;;;;;;;;;;;;;;27.65;55.39;101236.63;5074822;28;19919;-36
2022/08/04 09:08:30;;;;;;;;;;;;;;;27.72;56.26;101233.38;5074685;28;19919;-36
2022/08/04 09:11:07;;;;;;;;;;;;;;;27.75;56.80;101231.88;5074688;28;20082;-36
2022/08/04 09:13:35;;;;;;;;;;;;;;;27.83;55.62;101236.56;5075347;28;19913;-36
2022/08/04 09:16:03;;;;;;;;;;;;;;;27.93;55.96;101236.97;5073921;28;19912;-36
2022/08/04 09:18:35;;;;;;;;;;;;;;;27.93;56.39;101238.94;5074088;28;19920;-36
2022/08/04 09:21:08;;;;;;;;;;;;;;;27.92;56.63;101240.09;5074404;28;20011;-36
2022/08/04 09:23:46;;;;;;;;;;;;;;;27.94;56.24;101246.91;5074985;28;20052;-36
2022/08/04 09:26:26;;;;;;;;;;;;;;;27.98;55.80;101247.06;5074827;28;20284;-36
2022/08/04 09:28:51;;;;;;;;;;;;;;;27.93;54.38;101250.84;5074923;28;19919;-36
2022/08/04 09:31:19;;;;;;;;;;;;;;;27.86;55.40;101246.97;5074742;28;19912;-36
2022/08/04 09:33:59;;;;;;;;;;;;;;;27.76;55.57;101248.19;5073501;28;19999;-36
2022/08/04 09:36:33;;;;;;;;;;;;;;;27.68;54.70;101254.63;5074438;28;20379;-37
2022/08/04 09:39:01;;;;;;;;;;;;;;;27.62;55.88;101254.00;5074146;28;19919;-37
2022/08/04 09:41:55;;;;;;;;;;;;;;;27.66;55.66;101265.22;5074706;28;19953;-37
2022/08/04 09:44:21;;;;;;;;;;;;;;;27.81;55.96;101255.53;5051965;28;19920;-37
2022/08/04 09:46:51;;;;;;;;;;;;;;;27.88;55.35;101256.63;5051816;28;19929;-37
2022/08/04 09:49:20;;;;;;;;;;;;;;;27.80;55.44;101273.34;5051709;28;20027;-37
2022/08/04 09:51:55;;;;;;;;;;;;;;;27.69;55.02;101272.91;5051857;28;19923;-37
2022/08/04 09:54:27;;;;;;;;;;;;;;;27.57;54.36;101281.13;5051622;28;19913;-37
2022/08/04 09:56:56;;;;;;;;;;;;;;;27.49;55.59;101284.78;5052218;28;19928;-37
2022/08/04 09:59:32;;;;;;;;;;;;;;;27.42;56.26;101297.22;5051275;28;19916;-37
2022/08/04 10:01:59;;;;;;;;;;;;;;;27.32;55.89;101307.88;5051605;28;19917;-37
2022/08/04 10:04:28;;;;;;;;;;;;;;;27.21;56.09;101304.66;5051493;28;20288;-36
2022/08/04 10:06:58;;;;;;;;;;;;;;;27.10;56.28;101303.41;5051733;28;19913;-37
2022/08/04 10:09:26;;;;;;;;;;;;;;;26.99;56.68;101308.47;5051222;28;20003;-37
2022/08/04 10:11:58;;;;;;;;;;;;;;;26.86;56.91;101315.84;5051758;28;19912;-37
2022/08/04 10:14:25;;;;;;;;;;;;;;;26.74;57.65;101312.91;5051428;28;19983;-36
2022/08/04 10:16:57;;;;;;;;;;;;;;;26.59;58.54;101316.22;5051748;28;19998;-36
2022/08/04 10:19:22;;;;;;;;;;;;;;;26.43;59.34;101310.34;5051133;28;19913;-36
2022/08/04 10:21:50;;;;;;;;;;;;;;;26.26;61.61;101310.34;5072801;28;19957;-36
2022/08/04 10:24:21;;;;;;;;;;;;;;;26.09;60.81;101328.56;5073957;28;19919;-36
2022/08/04 10:26:47;;;;;;;;;;;;;;;25.92;62.25;101373.69;5073914;28;19913;-36
2022/08/04 10:29:25;;;;;;;;;;;;;;;25.79;63.27;101395.97;5073978;28;20056;-36
2022/08/04 10:31:56;;;;;;;;;;;;;;;25.61;65.73;101409.72;5073410;28;19912;-36
2022/08/04 10:34:25;;;;;;;;;;;;;;;25.47;64.80;101386.84;5073361;28;19912;-36
2022/08/04 10:36:54;;;;;;;;;;;;;;;25.34;66.37;101399.66;5073906;28;19923;-36
2022/08/04 10:39:24;;;;;;;;;;;;;;;25.18;65.43;101392.88;5074170;28;20385;-36
2022/08/04 10:42:05;;;;;;;;;;;;;;;25.08;65.93;101382.88;5073317;28;19923;-37
2022/08/04 10:44:49;;;;;;;;;;;;;;;24.98;66.30;101379.53;5073966;28;19917;-37
2022/08/04 10:47:23;;;;;;;;;;;;;;;24.87;68.27;101351.31;5078014;28;19913;-37
2022/08/04 10:49:58;;;;;;;;;;;;;;;24.60;71.39;101341.22;5077248;28;19912;-37
2022/08/04 10:52:25;;;;;;;;;;;;;;;24.51;70.37;101332.03;5077070;28;19913;-37
2022/08/04 10:54:59;;;;;;;;;;;;;;;24.49;70.45;101317.69;5077086;28;20049;-37
2022/08/04 10:57:31;;;;;;;;;;;;;;;24.48;73.21;101305.00;5077699;28;20272;-37
2022/08/04 10:59:59;;;;;;;;;;;;;;;24.37;73.67;101312.72;5077418;28;19916;-37
2022/08/04 11:02:25;;;;;;;;;;;;;;;24.34;72.81;101319.66;5077024;28;20008;-37
2022/08/04 11:04:54;;;;;;;;;;;;;;;24.42;74.19;101329.19;5076916;28;20052;-37
2022/08/04 11:07:20;;;;;;;;;;;;;;;24.46;73.48;101334.91;5077612;28;20273;-37
2022/08/04 11:09:45;;;;;;;;;;;;;;;24.48;76.40;101343.69;5076933;28;19912;-37
2022/08/04 11:12:14;;;;;;;;;;;;;;;24.46;73.36;101357.84;5077205;28;19919;-37
2022/08/04 11:14:52;;;;;;;;;;;;;;;24.51;73.67;101351.38;5076873;28;19916;-36
2022/08/04 11:17:25;;;;;;;;;;;;;;;24.48;73.14;101335.41;5076564;28;20061;-36
2022/08/04 11:19:59;;;;;;;;;;;;;;;24.43;75.41;101324.47;5076747;28;19912;-37
2022/08/04 11:22:25;;;;;;;;;;;;;;;24.37;76.09;101316.31;5077361;28;19980;-37
2022/08/04 11:24:53;;;;;;;;;;;;;;;24.35;73.30;101315.78;5077054;28;19912;-37
2022/08/04 11:27:24;;;;;;;;;;;;;;;24.34;75.25;101316.88;5076203;28;19955;-37
2022/08/04 11:29:56;;;;;;;;;;;;;;;24.32;73.95;101321.09;5076485;28;19927;-36
2022/08/04 11:32:30;;;;;;;;;;;;;;;24.37;73.39;101324.59;5076396;28;19948;-36
2022/08/04 11:34:59;;;;;;;;;;;;;;;24.49;75.16;101314.91;5076103;28;19912;-36
2022/08/04 11:37:40;;;;;;;;;;;;;;;24.65;74.61;101318.97;5076527;28;20312;-36
2022/08/04 11:40:17;;;;;;;;;;;;;;;24.79;76.90;101319.72;5076571;28;19973;-36
2022/08/04 11:42:51;;;;;;;;;;;;;;;24.99;75.69;101309.25;5076991;28;19958;-36
2022/08/04 11:45:18;;;;;;;;;;;;;;;25.14;76.16;101309.69;5076167;28;19971;-36
2022/08/04 11:47:56;;;;;;;;;;;;;;;25.29;75.04;101311.22;5076083;28;19918;-36
2022/08/04 11:50:28;;;;;;;;;;;;;;;25.68;75.10;101323.41;5076887;28;19912;-36
2022/08/04 11:52:54;;;;;;;;;;;;;;;25.99;72.99;101330.84;5076461;28;20339;-36
2022/08/04 11:55:21;;;;;;;;;;;;;;;26.23;72.97;101319.28;5076856;28;20348;-36
2022/08/04 11:57:46;;;;;;;;;;;;;;;26.34;71.54;101315.88;5075431;28;19919;-36
2022/08/04 12:00:13;;;;;;;;;;;;;;;26.44;70.26;101315.56;5076792;28;19916;-36
2022/08/04 12:02:57;;;;;;;;;;;;;;;26.70;69.43;101317.53;5076028;28;19913;-36
2022/08/04 12:05:45;;;;;;;;;;;;;;;26.75;67.49;101314.56;5076619;28;19912;-37
2022/08/04 12:08:28;;;;;;;;;;;;;;;26.90;68.42;101321.56;5076272;28;19919;-36
2022/08/04 12:10:53;;;;;;;;;;;;;;;27.11;67.52;101330.03;5076319;28;20375;-36
2022/08/04 12:13:35;;;;;;;;;;;;;;;27.27;66.57;101321.94;5076273;28;19927;-36
2022/08/04 12:16:15;;;;;;;;;;;;;;;27.51;65.97;101324.16;5075713;28;19969;-36
2022/08/04 12:18:44;;;;;;;;;;;;;;;27.64;65.06;101323.09;5075831;28;20321;-37
2022/08/04 12:21:29;;;;;;;;;;;;;;;27.70;64.00;101327.31;5075559;28;19916;-37
2022/08/04 12:23:57;;;;;;;;;;;;;;;27.44;62.54;101314.38;5075158;28;19912;-36
2022/08/04 12:26:25;;;;;;;;;;;;;;;27.46;64.46;101322.38;5076275;28;20061;-36
2022/08/04 12:28:56;;;;;;;;;;;;;;;27.55;64.71;101331.47;5075089;28;20010;-36
2022/08/04 12:31:39;;;;;;;;;;;;;;;27.41;62.41;101345.56;5075957;28;19912;-37
2022/08/04 12:34:20;;;;;;;;;;;;;;;27.25;63.99;101354.81;5076165;28;19913;-36
2022/08/04 12:37:11;;;;;;;;;;;;;;;27.08;64.06;101350.91;5076194;28;19998;-36
2022/08/04 12:39:38;;;;;;;;;;;;;;;26.92;64.39;101360.88;5073797;28;19912;-37
2022/08/04 12:42:12;;;;;;;;;;;;;;;26.77;63.65;101364.97;5075446;28;20414;-36
2022/08/04 12:44:39;;;;;;;;;;;;;;;26.65;63.88;101354.56;5075450;28;19912;-36
2022/08/04 12:47:09;;;;;;;;;;;;;;;26.56;63.80;101356.53;5075643;28;19917;-37
2022/08/04 12:49:36;;;;;;;;;;;;;;;26.50;64.43;101363.38;5073713;28;20334;-36
2022/08/04 12:52:05;;;;;;;;;;;;;;;26.52;64.87;101372.19;5075256;28;19951;-36
2022/08/04 12:54:32;;;;;;;;;;;;;;;26.55;63.72;101366.00;5074959;28;19962;-36
2022/08/04 12:56:58;;;;;;;;;;;;;;;26.69;64.55;101369.41;5075206;28;19923;-36